Time;durP1;ratioP1;P1;durP2;ratioP2;P2;SDS_P1;SDS_P2;PMS_P1;PMS_P2;Temp;Humidity;BMP_temperature;BMP_pressure;BME280_temperature;BME280_humidity;BME280_pressure;Samples;Min_cycle;Max_cycle;Signal;HPM_P1;HPM_P2
2022/10/28 00:02:07;;;;;;;8.18;5.43;;;17.20;91.00;;;;;;5072424;28;20909;-65
2022/10/28 00:04:33;;;;;;;8.45;5.20;;;17.20;90.90;;;;;;5064012;28;20422;-65
2022/10/28 00:07:01;;;;;;;7.18;5.00;;;17.20;90.90;;;;;;5086552;28;20425;-65
2022/10/28 00:09:28;;;;;;;7.38;5.00;;;17.20;90.80;;;;;;5068488;28;20432;-66
2022/10/28 00:11:55;;;;;;;7.77;5.20;;;17.30;90.90;;;;;;5066380;28;20547;-67
2022/10/28 00:14:22;;;;;;;7.40;5.15;;;17.30;90.60;;;;;;5065930;28;20430;-66
2022/10/28 00:16:48;;;;;;;7.70;4.90;;;17.30;90.50;;;;;;5067884;28;20435;-66
2022/10/28 00:19:15;;;;;;;8.00;5.45;;;17.30;90.70;;;;;;5068300;28;20424;-63
2022/10/28 00:21:44;;;;;;;10.15;4.80;;;17.30;90.50;;;;;;5070928;28;20431;-66
2022/10/28 00:24:13;;;;;;;6.93;5.40;;;17.30;90.60;;;;;;5083118;28;20788;-65
2022/10/28 00:26:42;;;;;;;8.18;5.20;;;17.30;90.40;;;;;;5073571;28;20419;-65
2022/10/28 00:29:13;;;;;;;8.82;5.57;;;17.40;90.20;;;;;;5085585;28;20423;-64
2022/10/28 00:31:41;;;;;;;7.20;5.20;;;17.40;90.20;;;;;;5062715;28;20428;-64
2022/10/28 00:34:10;;;;;;;7.82;4.90;;;17.30;90.10;;;;;;5063082;28;20438;-62
2022/10/28 00:36:39;;;;;;;7.57;5.30;;;17.40;89.90;;;;;;5068656;28;20430;-65
2022/10/28 00:39:12;;;;;;;6.10;4.85;;;17.40;89.60;;;;;;5056963;28;20422;-64
2022/10/28 00:41:41;;;;;;;7.25;4.80;;;17.50;89.80;;;;;;5070625;28;20411;-64
2022/10/28 00:44:49;;;;;;;7.77;4.90;;;17.40;89.50;;;;;;5068540;28;20809;-64
2022/10/28 00:47:23;;;;;;;6.93;4.90;;;17.50;89.00;;;;;;5064119;28;20454;-64
2022/10/28 00:49:54;;;;;;;8.88;5.40;;;17.50;89.00;;;;;;5069775;28;20443;-64
2022/10/28 00:52:23;;;;;;;8.45;5.20;;;17.50;88.80;;;;;;5058297;28;20415;-65
2022/10/28 00:54:53;;;;;;;7.22;5.47;;;17.50;88.50;;;;;;5070134;28;20423;-64
2022/10/28 00:57:22;;;;;;;8.25;4.93;;;17.50;88.20;;;;;;5079858;28;20417;-66
2022/10/28 00:59:53;;;;;;;8.52;4.80;;;17.50;87.70;;;;;;5070821;28;20435;-65
2022/10/28 01:02:20;;;;;;;8.82;4.80;;;17.60;87.60;;;;;;5069228;28;20416;-64
2022/10/28 01:04:47;;;;;;;7.85;5.15;;;17.60;87.50;;;;;;5083013;28;20426;-65
2022/10/28 01:07:15;;;;;;;10.52;5.05;;;17.70;87.50;;;;;;5082653;28;20421;-64
2022/10/28 01:09:42;;;;;;;10.45;4.70;;;17.70;86.80;;;;;;5063663;28;20424;-64
2022/10/28 01:12:23;;;;;;;6.10;4.65;;;17.70;86.40;;;;;;5069891;28;20415;-64
2022/10/28 01:15:02;;;;;;;6.82;4.65;;;17.80;86.30;;;;;;5068411;28;20423;-63
2022/10/28 01:17:47;;;;;;;6.55;4.60;;;17.80;85.70;;;;;;5068949;28;20423;-64
2022/10/28 01:20:39;;;;;;;5.03;4.13;;;17.80;85.40;;;;;;5081195;28;20451;-64
2022/10/28 01:23:13;;;;;;;6.70;4.30;;;17.90;85.40;;;;;;5079924;28;20417;-64
2022/10/28 01:26:29;;;;;;;8.40;5.22;;;17.80;85.50;;;;;;5073486;28;20418;-65
2022/10/28 01:29:19;;;;;;;7.35;4.82;;;17.90;85.40;;;;;;5066648;28;20435;-65
2022/10/28 01:31:53;;;;;;;8.47;4.50;;;17.90;85.10;;;;;;5067106;28;20435;-64
2022/10/28 01:34:27;;;;;;;7.53;4.30;;;17.80;85.00;;;;;;5058004;28;20419;-63
2022/10/28 01:36:59;;;;;;;8.40;4.25;;;17.90;85.10;;;;;;5069462;28;20419;-65
2022/10/28 01:39:33;;;;;;;6.30;4.30;;;17.80;85.10;;;;;;5069016;28;20420;-64
2022/10/28 01:42:13;;;;;;;7.32;4.80;;;17.90;84.80;;;;;;5068987;28;20415;-64
2022/10/28 01:44:48;;;;;;;8.07;4.50;;;17.90;84.30;;;;;;5061139;28;20444;-65
2022/10/28 01:47:19;;;;;;;10.10;4.90;;;17.90;84.20;;;;;;5060636;28;20833;-64
2022/10/28 01:49:50;;;;;;;6.25;4.80;;;17.90;83.80;;;;;;5061852;28;20854;-64
2022/10/28 01:52:21;;;;;;;8.30;4.60;;;18.00;83.90;;;;;;5062430;28;20443;-64
2022/10/28 01:54:50;;;;;;;6.55;4.35;;;18.00;84.10;;;;;;5067467;28;20859;-65
2022/10/28 01:57:19;;;;;;;7.55;4.80;;;17.90;84.00;;;;;;5069032;28;20424;-64
2022/10/28 01:59:48;;;;;;;8.73;4.65;;;17.90;84.10;;;;;;5065418;28;20440;-64
2022/10/28 02:02:17;;;;;;;8.48;5.00;;;18.00;83.80;;;;;;5068319;28;20907;-64
2022/10/28 02:04:44;;;;;;;10.35;4.43;;;17.90;84.70;;;;;;5067708;28;20815;-64
2022/10/28 02:07:11;;;;;;;6.38;4.80;;;17.90;83.70;;;;;;5067795;28;20917;-65
2022/10/28 02:09:55;;;;;;;7.80;4.50;;;17.90;83.70;;;;;;5066767;28;20913;-64
2022/10/28 02:12:26;;;;;;;6.22;4.40;;;18.00;83.80;;;;;;5068031;28;20415;-64
2022/10/28 02:15:19;;;;;;;10.35;5.00;;;17.90;83.80;;;;;;5064153;28;20442;-64
2022/10/28 02:18:06;;;;;;;7.95;5.07;;;17.90;84.00;;;;;;5071481;28;20422;-65
2022/10/28 02:20:40;;;;;;;6.20;4.80;;;17.90;84.20;;;;;;5070624;28;20438;-65
2022/10/28 02:23:17;;;;;;;6.47;4.60;;;17.90;84.00;;;;;;5076542;28;20418;-65
2022/10/28 02:25:48;;;;;;;5.93;4.23;;;17.90;84.00;;;;;;5074597;28;21144;-66
2022/10/28 02:28:20;;;;;;;6.25;4.38;;;17.90;84.40;;;;;;5075672;28;20435;-66
2022/10/28 02:30:51;;;;;;;10.23;4.93;;;17.80;84.40;;;;;;5068545;28;20434;-66
2022/10/28 02:33:23;;;;;;;6.75;4.80;;;17.70;84.80;;;;;;5060351;28;20427;-66
2022/10/28 02:35:55;;;;;;;7.63;4.17;;;17.70;84.80;;;;;;5056753;28;20420;-64
2022/10/28 02:38:27;;;;;;;6.68;4.20;;;17.70;84.70;;;;;;5066315;28;20469;-64
2022/10/28 02:40:58;;;;;;;8.00;4.65;;;17.70;84.40;;;;;;5080596;28;20434;-65
2022/10/28 02:43:27;;;;;;;8.25;4.85;;;17.70;84.40;;;;;;5067340;28;20435;-65
2022/10/28 02:45:58;;;;;;;6.07;4.60;;;17.70;84.60;;;;;;5067341;28;20428;-65
2022/10/28 02:48:30;;;;;;;8.65;4.38;;;17.70;84.20;;;;;;5080308;28;20420;-65
2022/10/28 02:51:02;;;;;;;6.90;4.30;;;17.70;83.80;;;;;;5067659;28;20435;-65
2022/10/28 02:53:33;;;;;;;8.57;4.57;;;17.80;83.80;;;;;;5069571;28;20432;-65
2022/10/28 02:56:02;;;;;;;8.80;4.70;;;17.80;83.30;;;;;;5057477;28;20464;-65
2022/10/28 02:58:29;;;;;;;9.60;4.80;;;17.80;83.20;;;;;;5065353;28;20462;-65
2022/10/28 03:00:56;;;;;;;9.38;5.00;;;17.80;82.90;;;;;;5070694;28;20412;-64
2022/10/28 03:03:23;;;;;;;8.95;4.70;;;17.80;82.80;;;;;;5066987;28;20416;-65
2022/10/28 03:05:51;;;;;;;7.85;4.32;;;17.80;82.90;;;;;;5075380;28;20502;-65
2022/10/28 03:08:18;;;;;;;9.07;5.00;;;17.80;82.50;;;;;;5066492;28;20415;-65
2022/10/28 03:10:44;;;;;;;7.97;4.78;;;17.90;82.30;;;;;;5066360;28;20431;-65
2022/10/28 03:13:11;;;;;;;5.80;4.63;;;17.90;82.00;;;;;;5059533;28;20427;-65
2022/10/28 03:15:38;;;;;;;7.90;4.55;;;17.90;82.10;;;;;;5066827;28;20423;-64
2022/10/28 03:18:04;;;;;;;6.55;4.60;;;17.90;82.00;;;;;;5053506;28;20415;-64
2022/10/28 03:20:31;;;;;;;7.70;4.50;;;17.90;82.10;;;;;;5079829;28;20814;-64
2022/10/28 03:22:59;;;;;;;8.37;3.93;;;17.80;82.20;;;;;;5071957;28;20426;-64
2022/10/28 03:25:26;;;;;;;7.18;4.32;;;17.80;82.40;;;;;;5073586;28;21073;-64
2022/10/28 03:27:53;;;;;;;7.68;5.00;;;17.80;82.40;;;;;;5058885;28;20443;-64
2022/10/28 03:30:19;;;;;;;7.27;4.47;;;17.80;82.20;;;;;;5057952;28;20506;-64
2022/10/28 03:32:46;;;;;;;7.72;4.55;;;17.80;82.40;;;;;;5063591;28;20434;-65
2022/10/28 03:35:13;;;;;;;7.70;4.50;;;17.80;82.50;;;;;;5057067;28;20789;-66
2022/10/28 03:37:42;;;;;;;7.40;4.47;;;17.70;82.70;;;;;;5066287;28;20442;-64
2022/10/28 03:40:11;;;;;;;8.23;5.10;;;17.70;82.60;;;;;;5065260;28;20469;-64
2022/10/28 03:42:40;;;;;;;9.23;4.35;;;17.70;83.00;;;;;;5062321;28;20910;-64
2022/10/28 03:45:07;;;;;;;8.98;4.80;;;17.70;83.10;;;;;;5066404;28;20419;-66
2022/10/28 03:47:34;;;;;;;8.73;4.82;;;17.70;83.10;;;;;;5067605;28;20415;-66
2022/10/28 03:50:01;;;;;;;8.45;5.05;;;17.70;83.10;;;;;;5065355;28;20935;-64
2022/10/28 03:52:28;;;;;;;7.50;4.70;;;17.60;83.30;;;;;;5066128;28;20434;-64
2022/10/28 03:54:54;;;;;;;8.38;4.53;;;17.60;83.40;;;;;;5063801;28;20440;-65
2022/10/28 03:57:22;;;;;;;8.43;4.60;;;17.60;83.40;;;;;;5064504;28;20533;-65
2022/10/28 03:59:49;;;;;;;7.93;4.30;;;17.60;83.50;;;;;;5063277;28;20779;-65
2022/10/28 04:02:16;;;;;;;9.77;4.70;;;17.60;83.50;;;;;;5065896;28;20411;-65
2022/10/28 04:04:43;;;;;;;8.00;4.60;;;17.50;83.60;;;;;;5082189;28;20430;-65
2022/10/28 04:07:09;;;;;;;6.57;4.20;;;17.50;83.60;;;;;;5073375;28;20416;-64
2022/10/28 04:09:36;;;;;;;10.05;5.05;;;17.50;83.60;;;;;;5064878;28;20460;-65
2022/10/28 04:12:03;;;;;;;9.35;4.55;;;17.50;83.80;;;;;;5061940;28;20424;-65
2022/10/28 04:14:31;;;;;;;8.38;4.53;;;17.50;84.00;;;;;;5065942;28;20438;-65
2022/10/28 04:16:58;;;;;;;7.97;4.90;;;17.50;84.30;;;;;;5067440;28;20416;-65
2022/10/28 04:19:25;;;;;;;8.35;4.50;;;17.40;85.20;;;;;;5066061;28;21154;-64
2022/10/28 04:21:51;;;;;;;6.43;3.92;;;17.40;84.40;;;;;;5067769;28;20427;-62
2022/10/28 04:24:18;;;;;;;8.02;4.57;;;17.40;84.50;;;;;;5080456;28;20426;-64
2022/10/28 04:26:45;;;;;;;7.50;5.13;;;17.40;84.80;;;;;;5075726;28;20451;-65
2022/10/28 04:29:12;;;;;;;6.78;4.60;;;17.30;84.90;;;;;;5063259;28;20441;-61
2022/10/28 04:31:40;;;;;;;8.93;4.40;;;17.30;85.10;;;;;;5070492;28;20430;-62
2022/10/28 04:34:06;;;;;;;6.70;4.63;;;17.30;84.90;;;;;;5071981;28;20411;-62
2022/10/28 04:36:33;;;;;;;9.38;4.43;;;17.30;85.00;;;;;;5062865;28;20433;-63
2022/10/28 04:39:00;;;;;;;8.25;4.78;;;17.30;85.00;;;;;;5069690;28;20429;-62
2022/10/28 04:41:27;;;;;;;8.45;4.70;;;17.20;85.10;;;;;;5066122;28;21102;-62
2022/10/28 04:43:54;;;;;;;9.30;5.10;;;17.20;85.50;;;;;;5064457;28;20455;-62
2022/10/28 04:46:21;;;;;;;8.30;4.80;;;17.20;85.60;;;;;;5067275;28;20863;-62
2022/10/28 04:48:49;;;;;;;7.10;4.30;;;17.30;85.30;;;;;;5067190;28;20787;-61
2022/10/28 04:51:16;;;;;;;10.52;4.93;;;17.30;84.80;;;;;;5060110;28;20430;-62
2022/10/28 04:53:43;;;;;;;8.80;4.68;;;17.30;84.90;;;;;;5066609;28;20416;-62
2022/10/28 04:56:10;;;;;;;8.80;4.68;;;17.30;84.60;;;;;;5066628;28;20931;-62
2022/10/28 04:58:36;;;;;;;8.05;4.95;;;17.30;84.60;;;;;;5056809;28;20456;-62
2022/10/28 05:01:06;;;;;;;9.57;5.00;;;17.30;84.40;;;;;;5065508;28;20428;-61
2022/10/28 05:03:32;;;;;;;8.02;4.55;;;17.30;84.50;;;;;;5056997;28;20826;-62
2022/10/28 05:06:01;;;;;;;9.82;4.90;;;17.30;84.30;;;;;;5083638;28;20428;-62
2022/10/28 05:08:27;;;;;;;7.75;4.93;;;17.30;84.50;;;;;;5069137;28;20427;-62
2022/10/28 05:10:54;;;;;;;10.68;4.93;;;17.30;84.50;;;;;;5068004;28;20416;-61
2022/10/28 05:13:21;;;;;;;11.23;5.50;;;17.30;84.70;;;;;;5069996;28;20793;-62
2022/10/28 05:15:48;;;;;;;6.90;4.90;;;17.30;84.90;;;;;;5070166;28;20431;-62
2022/10/28 05:18:15;;;;;;;8.80;5.25;;;17.20;85.00;;;;;;5069641;28;20423;-61
2022/10/28 05:20:42;;;;;;;8.57;4.93;;;17.20;85.20;;;;;;5105665;22;20742;-61
2022/10/28 05:23:11;;;;;;;10.38;5.60;;;17.10;85.50;;;;;;5090498;28;20423;-75
2022/10/28 05:25:37;;;;;;;7.70;4.87;;;17.10;85.80;;;;;;5095159;28;20466;-75
2022/10/28 05:28:04;;;;;;;9.15;5.05;;;17.00;85.90;;;;;;5102771;28;20434;-76
2022/10/28 05:30:31;;;;;;;8.65;5.03;;;17.00;86.20;;;;;;5108377;28;20413;-75
2022/10/28 05:33:02;;;;;;;8.48;5.03;;;17.00;86.40;;;;;;5094488;28;20423;-76
2022/10/28 05:35:29;;;;;;;8.75;4.90;;;17.00;86.30;;;;;;5095011;28;20922;-76
2022/10/28 05:37:55;;;;;;;10.45;5.43;;;17.00;86.20;;;;;;5086602;28;20432;-74
2022/10/28 05:40:24;;;;;;;9.27;5.10;;;17.00;86.00;;;;;;5083027;28;20433;-75
2022/10/28 05:42:50;;;;;;;11.23;5.40;;;17.00;86.10;;;;;;5083025;28;21041;-75
2022/10/28 05:45:18;;;;;;;8.85;4.90;;;17.00;86.20;;;;;;5086554;28;20428;-76
2022/10/28 05:47:45;;;;;;;9.70;4.80;;;17.00;86.30;;;;;;5083850;28;20420;-77
2022/10/28 05:50:12;;;;;;;10.43;5.20;;;16.90;86.50;;;;;;5082092;28;20433;-76
2022/10/28 05:52:39;;;;;;;12.25;5.97;;;16.90;86.40;;;;;;5088866;28;20799;-76
2022/10/28 05:55:06;;;;;;;7.10;4.93;;;17.00;86.50;;;;;;5081549;28;20421;-75
2022/10/28 05:57:35;;;;;;;7.43;5.00;;;16.90;86.60;;;;;;5088145;28;20421;-76
2022/10/28 06:00:03;;;;;;;7.40;5.70;;;17.00;86.50;;;;;;5076586;28;20837;-74
2022/10/28 06:02:30;;;;;;;7.35;5.32;;;17.00;86.60;;;;;;5081821;28;20795;-76
2022/10/28 06:04:56;;;;;;;10.15;4.97;;;16.90;86.60;;;;;;5098469;28;20435;-75
2022/10/28 06:07:24;;;;;;;10.32;5.30;;;16.90;86.70;;;;;;5108655;28;20419;-77
2022/10/28 06:09:51;;;;;;;10.68;5.13;;;17.00;86.40;;;;;;5108206;28;20415;-76
2022/10/28 06:12:18;;;;;;;8.07;4.85;;;17.00;86.40;;;;;;5110514;28;20426;-75
2022/10/28 06:14:46;;;;;;;6.03;4.60;;;17.00;86.30;;;;;;5109045;28;20424;-74
2022/10/28 06:17:13;;;;;;;7.80;4.60;;;17.00;86.30;;;;;;5080292;28;20479;-75
2022/10/28 06:19:39;;;;;;;9.52;4.95;;;17.00;86.30;;;;;;5070797;28;20423;-75
2022/10/28 06:22:06;;;;;;;8.23;5.00;;;17.00;86.00;;;;;;5075478;28;20411;-76
2022/10/28 06:24:33;;;;;;;9.07;5.15;;;17.10;86.10;;;;;;5084549;28;20436;-74
2022/10/28 06:27:00;;;;;;;10.10;5.22;;;17.00;85.90;;;;;;5091235;28;20504;-74
2022/10/28 06:29:26;;;;;;;8.60;4.90;;;17.00;85.90;;;;;;5085121;28;20410;-77
2022/10/28 06:31:55;;;;;;;6.20;4.97;;;17.00;86.00;;;;;;5087707;28;20432;-75
2022/10/28 06:34:21;;;;;;;8.45;5.20;;;17.00;86.30;;;;;;5080957;28;20429;-75
2022/10/28 06:36:48;;;;;;;10.70;5.30;;;17.00;86.50;;;;;;5088618;28;20410;-75
2022/10/28 06:39:15;;;;;;;7.82;4.65;;;17.00;86.70;;;;;;5092478;28;20449;-75
2022/10/28 06:41:42;;;;;;;10.55;5.70;;;16.90;87.70;;;;;;5078678;28;20425;-75
2022/10/28 06:44:09;;;;;;;10.23;5.40;;;16.90;86.90;;;;;;5098151;28;20508;-74
2022/10/28 06:46:36;;;;;;;9.20;5.07;;;17.00;86.50;;;;;;5076285;28;20964;-74
2022/10/28 06:49:04;;;;;;;9.45;5.00;;;17.00;86.00;;;;;;5099096;28;20419;-75
2022/10/28 06:51:31;;;;;;;6.90;4.32;;;17.10;85.60;;;;;;5089365;28;20456;-75
2022/10/28 06:53:59;;;;;;;9.00;4.60;;;17.10;85.00;;;;;;5087060;28;20523;-75
2022/10/28 06:56:25;;;;;;;11.50;5.18;;;17.20;84.90;;;;;;5081101;28;20427;-74
2022/10/28 06:58:53;;;;;;;8.60;5.30;;;17.20;84.60;;;;;;5070170;28;20905;-75
2022/10/28 07:01:20;;;;;;;7.88;4.70;;;17.30;84.20;;;;;;5083901;28;20425;-75
2022/10/28 07:03:48;;;;;;;7.50;4.90;;;17.30;83.80;;;;;;5086021;28;20437;-74
2022/10/28 07:06:17;;;;;;;8.00;4.90;;;17.30;83.60;;;;;;5100392;28;20428;-75
2022/10/28 07:08:44;;;;;;;9.80;4.90;;;17.40;83.70;;;;;;5073209;28;20437;-75
2022/10/28 07:11:11;;;;;;;9.75;5.38;;;17.40;83.50;;;;;;5076465;28;20439;-75
2022/10/28 07:13:39;;;;;;;9.48;5.15;;;17.40;83.30;;;;;;5077108;28;20421;-76
2022/10/28 07:16:06;;;;;;;10.13;5.00;;;17.40;83.60;;;;;;5074603;28;20423;-76
2022/10/28 07:18:33;;;;;;;5.63;5.03;;;17.40;83.30;;;;;;5098781;28;20431;-74
2022/10/28 07:21:00;;;;;;;8.05;5.03;;;17.40;83.30;;;;;;5071856;28;20415;-75
2022/10/28 07:23:30;;;;;;;6.73;4.40;;;17.40;82.90;;;;;;5068695;28;20412;-75
2022/10/28 07:25:57;;;;;;;11.43;5.45;;;17.50;82.90;;;;;;5079061;28;20513;-75
2022/10/28 07:28:25;;;;;;;7.82;4.70;;;17.50;82.90;;;;;;5080694;28;20418;-74
2022/10/28 07:30:52;;;;;;;10.00;5.18;;;17.50;82.80;;;;;;5068604;28;20420;-76
2022/10/28 07:33:19;;;;;;;7.32;4.57;;;17.50;82.60;;;;;;5070759;28;20436;-76
2022/10/28 07:35:46;;;;;;;9.75;4.80;;;17.60;82.40;;;;;;5087597;28;20455;-74
2022/10/28 07:38:13;;;;;;;10.60;4.82;;;17.60;82.60;;;;;;5081958;28;20429;-75
2022/10/28 07:40:41;;;;;;;12.93;5.30;;;17.70;82.00;;;;;;5086520;28;20451;-74
2022/10/28 07:43:07;;;;;;;9.85;5.00;;;17.70;81.90;;;;;;5081692;28;20425;-76
2022/10/28 07:45:35;;;;;;;10.25;5.20;;;17.70;82.10;;;;;;5084107;28;20430;-76
2022/10/28 07:48:01;;;;;;;11.65;5.05;;;17.70;81.70;;;;;;5080603;28;20418;-75
2022/10/28 07:50:28;;;;;;;7.90;4.60;;;17.80;81.10;;;;;;5078121;28;20434;-76
2022/10/28 07:52:55;;;;;;;7.65;4.30;;;18.00;80.40;;;;;;5070329;28;20431;-75
2022/10/28 07:55:22;;;;;;;10.02;4.93;;;18.10;80.10;;;;;;5080962;28;20979;-76
2022/10/28 07:57:50;;;;;;;9.85;4.47;;;18.20;79.40;;;;;;5085743;28;20417;-74
2022/10/28 08:00:17;;;;;;;9.40;4.43;;;18.30;79.00;;;;;;5099431;28;20434;-74
2022/10/28 08:02:43;;;;;;;10.90;5.20;;;18.30;78.70;;;;;;5073959;28;20430;-75
2022/10/28 08:05:10;;;;;;;10.80;4.85;;;18.30;78.50;;;;;;5086585;28;20430;-75
2022/10/28 08:07:37;;;;;;;7.43;5.00;;;18.30;78.70;;;;;;5080397;28;20413;-75
2022/10/28 08:10:04;;;;;;;7.82;5.03;;;18.40;78.70;;;;;;5082830;28;20442;-75
2022/10/28 08:12:31;;;;;;;9.67;5.13;;;18.40;78.60;;;;;;5089024;28;20423;-73
2022/10/28 08:14:59;;;;;;;9.40;5.00;;;18.40;78.20;;;;;;5107218;28;20521;-75
2022/10/28 08:17:26;;;;;;;10.75;5.10;;;18.50;78.20;;;;;;5089749;28;20435;-76
2022/10/28 08:19:53;;;;;;;9.80;5.00;;;18.50;77.90;;;;;;5091817;28;20561;-74
2022/10/28 08:22:19;;;;;;;10.20;5.20;;;18.50;77.60;;;;;;5084984;28;20426;-76
2022/10/28 08:24:46;;;;;;;11.45;4.85;;;18.60;77.20;;;;;;5081035;28;20437;-75
2022/10/28 08:27:13;;;;;;;6.60;4.53;;;18.60;77.30;;;;;;5077610;28;20419;-75
2022/10/28 08:29:39;;;;;;;7.35;4.70;;;18.70;77.00;;;;;;5099505;28;20428;-75
2022/10/28 08:32:09;;;;;;;9.73;5.00;;;18.60;77.20;;;;;;5081377;28;20513;-76
2022/10/28 08:34:36;;;;;;;9.50;5.10;;;18.70;77.10;;;;;;5082229;28;20904;-76
2022/10/28 08:37:03;;;;;;;12.80;4.90;;;18.70;77.20;;;;;;5082378;28;20411;-76
2022/10/28 08:39:29;;;;;;;8.93;4.78;;;18.70;77.00;;;;;;5076823;28;20442;-76
2022/10/28 08:42:07;;;;;;;9.05;4.80;;;18.70;76.80;;;;;;5088617;28;20451;-76
2022/10/28 08:44:52;;;;;;;9.05;5.05;;;18.70;76.70;;;;;;5080092;28;20415;-76
2022/10/28 08:47:34;;;;;;;10.00;4.40;;;18.70;76.60;;;;;;5071814;28;20419;-75
2022/10/28 08:50:05;;;;;;;8.65;4.35;;;18.70;76.40;;;;;;5074939;28;20427;-75
2022/10/28 08:52:39;;;;;;;11.25;4.20;;;18.80;76.10;;;;;;5080804;28;20422;-74
2022/10/28 08:55:13;;;;;;;11.00;4.70;;;18.80;75.90;;;;;;5081144;28;20427;-75
2022/10/28 08:57:46;;;;;;;7.70;4.13;;;18.90;75.70;;;;;;5080390;28;20431;-75
2022/10/28 09:00:20;;;;;;;7.05;4.22;;;19.00;75.50;;;;;;5088332;28;20424;-76
2022/10/28 09:02:55;;;;;;;10.30;4.57;;;19.20;74.40;;;;;;5082241;28;20422;-76
2022/10/28 09:05:23;;;;;;;8.00;4.28;;;19.50;73.50;;;;;;5089668;28;20436;-75
2022/10/28 09:07:51;;;;;;;6.68;4.00;;;19.80;72.00;;;;;;5075124;28;20422;-76
2022/10/28 09:10:29;;;;;;;7.22;3.90;;;19.90;71.30;;;;;;5082009;28;20422;-75
2022/10/28 09:13:06;;;;;;;7.80;3.90;;;19.90;70.40;;;;;;5081778;28;20427;-75
2022/10/28 09:15:37;;;;;;;8.30;4.43;;;19.90;71.10;;;;;;5081810;28;20923;-77
2022/10/28 09:18:16;;;;;;;7.03;3.60;;;19.90;71.40;;;;;;5093640;28;20413;-76
2022/10/28 09:20:51;;;;;;;8.30;4.20;;;20.30;70.40;;;;;;5115881;28;20394;-77
2022/10/28 09:23:23;;;;;;;8.85;4.47;;;20.60;68.10;;;;;;5101695;28;20427;-75
2022/10/28 09:25:59;;;;;;;7.67;4.30;;;20.90;67.60;;;;;;5110671;28;20521;-75
2022/10/28 09:28:41;;;;;;;7.63;3.90;;;21.00;66.60;;;;;;5111122;28;20441;-74
2022/10/28 09:31:14;;;;;;;7.57;3.97;;;21.20;65.70;;;;;;5114518;28;20422;-74
2022/10/28 09:33:51;;;;;;;9.75;4.15;;;21.30;65.70;;;;;;5104873;28;20420;-74
2022/10/28 09:36:23;;;;;;;10.10;5.45;;;21.40;65.10;;;;;;5105759;28;20428;-74
2022/10/28 09:38:54;;;;;;;12.63;6.35;;;21.50;64.60;;;;;;5096743;28;20423;-76
2022/10/28 09:41:24;;;;;;;9.20;5.70;;;21.50;64.50;;;;;;5105158;28;20435;-75
2022/10/28 09:43:55;;;;;;;9.35;4.30;;;21.40;65.00;;;;;;5114474;28;20413;-75
2022/10/28 09:46:23;;;;;;;9.07;4.65;;;21.30;65.50;;;;;;5107102;28;20794;-75
2022/10/28 09:48:56;;;;;;;7.97;4.07;;;21.30;65.90;;;;;;5092973;28;20478;-75
2022/10/28 09:51:30;;;;;;;8.57;4.60;;;21.60;64.90;;;;;;5086309;28;20437;-75
2022/10/28 09:53:59;;;;;;;7.82;3.80;;;21.80;63.80;;;;;;5086064;28;20425;-73
2022/10/28 09:56:27;;;;;;;7.20;4.50;;;22.10;63.70;;;;;;5090249;28;20437;-75
2022/10/28 09:58:58;;;;;;;7.13;4.03;;;22.30;62.20;;;;;;5098020;28;20420;-75
2022/10/28 10:01:25;;;;;;;6.95;3.58;;;22.30;62.50;;;;;;5087186;28;20486;-75
2022/10/28 10:03:53;;;;;;;8.80;3.80;;;22.70;61.90;;;;;;5080906;28;20421;-76
2022/10/28 10:06:27;;;;;;;7.70;3.90;;;22.80;60.60;;;;;;5089215;28;20425;-77
2022/10/28 10:08:55;;;;;;;7.45;3.97;;;22.80;60.40;;;;;;5087229;28;20436;-76
2022/10/28 10:11:30;;;;;;;10.90;4.50;;;23.00;60.40;;;;;;5072641;28;20442;-76
2022/10/28 10:13:59;;;;;;;11.13;4.70;;;23.10;61.00;;;;;;5076112;28;20455;-75
2022/10/28 10:16:38;;;;;;;9.70;4.30;;;23.10;60.20;;;;;;5097493;28;20421;-76
2022/10/28 10:19:08;;;;;;;6.45;3.97;;;23.40;59.40;;;;;;5082784;28;20425;-77
2022/10/28 10:21:46;;;;;;;9.73;4.07;;;23.60;58.50;;;;;;5092012;28;20444;-75
2022/10/28 10:24:23;;;;;;;7.93;4.00;;;23.70;58.40;;;;;;5083693;28;20425;-75
2022/10/28 10:26:51;;;;;;;8.47;4.07;;;23.70;58.30;;;;;;5086014;28;20434;-76
2022/10/28 10:29:18;;;;;;;8.80;3.70;;;23.60;58.60;;;;;;5090184;28;21151;-76
2022/10/28 10:31:45;;;;;;;8.43;3.90;;;23.60;59.00;;;;;;5091154;28;20425;-76
2022/10/28 10:34:23;;;;;;;6.90;4.07;;;23.60;59.10;;;;;;5081345;28;20426;-76
2022/10/28 10:36:53;;;;;;;9.90;4.43;;;23.50;58.80;;;;;;5087230;28;20526;-76
2022/10/28 10:39:25;;;;;;;10.85;4.40;;;23.40;59.50;;;;;;5086627;28;20934;-73
2022/10/28 10:41:53;;;;;;;9.48;3.92;;;23.40;59.70;;;;;;5088773;28;20429;-76
2022/10/28 10:44:34;;;;;;;6.90;4.00;;;23.40;59.50;;;;;;5079477;28;20785;-76
2022/10/28 10:47:23;;;;;;;8.90;4.25;;;23.50;59.70;;;;;;5092702;28;20411;-75
2022/10/28 10:49:53;;;;;;;10.77;4.03;;;23.50;59.60;;;;;;5078804;28;20430;-75
2022/10/28 10:52:24;;;;;;;7.30;4.33;;;23.60;59.30;;;;;;5084400;28;20431;-77
2022/10/28 10:55:01;;;;;;;10.37;4.10;;;23.60;59.30;;;;;;5070555;28;20492;-76
2022/10/28 10:57:28;;;;;;;6.78;3.90;;;23.70;58.90;;;;;;5081841;28;20796;-76
2022/10/28 10:59:56;;;;;;;8.30;3.73;;;23.70;59.10;;;;;;5082793;28;20431;-76
2022/10/28 11:02:26;;;;;;;9.40;4.27;;;23.80;59.20;;;;;;5075578;28;20941;-75
2022/10/28 11:04:57;;;;;;;7.73;4.00;;;23.80;58.50;;;;;;5077974;28;20428;-75
2022/10/28 11:07:27;;;;;;;7.63;4.40;;;23.80;59.20;;;;;;5077772;28;20582;-77
2022/10/28 11:09:54;;;;;;;6.68;3.88;;;23.90;58.70;;;;;;5086205;28;20499;-76
2022/10/28 11:12:27;;;;;;;8.30;4.03;;;24.30;58.00;;;;;;5086248;28;20418;-76
2022/10/28 11:14:56;;;;;;;9.35;3.60;;;24.70;57.20;;;;;;5089419;28;20432;-75
2022/10/28 11:17:26;;;;;;;8.45;4.10;;;25.00;56.20;;;;;;5092878;28;20497;-76
2022/10/28 11:19:57;;;;;;;8.05;3.70;;;25.20;55.10;;;;;;5100999;28;20424;-75
2022/10/28 11:22:42;;;;;;;5.72;4.00;;;25.40;54.80;;;;;;5094407;28;20827;-75
2022/10/28 11:25:37;;;;;;;6.00;3.30;;;25.40;54.40;;;;;;5097486;28;20435;-75
2022/10/28 11:28:33;;;;;;;7.97;3.45;;;25.60;54.10;;;;;;5063159;28;20450;-75
2022/10/28 11:31:14;;;;;;;4.97;3.20;;;25.70;53.60;;;;;;5103119;28;20406;-76
2022/10/28 11:33:48;;;;;;;9.45;3.83;;;25.80;53.70;;;;;;5081758;28;20425;-75
2022/10/28 11:36:23;;;;;;;7.05;3.67;;;25.90;53.10;;;;;;5075573;28;20420;-76
2022/10/28 11:39:19;;;;;;;6.80;3.92;;;26.10;53.10;;;;;;5081080;28;20437;-78
2022/10/28 11:42:00;;;;;;;7.97;3.67;;;26.10;52.30;;;;;;5075269;22;20436;-65
2022/10/28 11:44:38;;;;;;;7.03;3.50;;;26.00;53.00;;;;;;5059689;28;20403;-66
2022/10/28 11:47:21;;;;;;;10.02;3.83;;;25.80;53.00;;;;;;5065501;28;20802;-65
2022/10/28 11:50:15;;;;;;;7.80;3.50;;;25.60;52.90;;;;;;5072280;28;20416;-65
2022/10/28 11:53:01;;;;;;;8.82;4.20;;;25.50;53.50;;;;;;5035767;28;20429;-67
2022/10/28 11:55:35;;;;;;;10.80;3.90;;;25.40;54.00;;;;;;5040255;28;20489;-67
2022/10/28 11:58:11;;;;;;;8.93;3.80;;;25.40;53.50;;;;;;5046670;28;20419;-66
2022/10/28 12:00:50;;;;;;;10.70;4.07;;;25.60;53.00;;;;;;5049524;28;20900;-66
2022/10/28 12:03:41;;;;;;;6.20;3.80;;;25.70;52.90;;;;;;5046943;28;20410;-66
2022/10/28 12:06:16;;;;;;;7.85;4.07;;;25.80;51.70;;;;;;5043994;28;20547;-66
2022/10/28 12:09:04;;;;;;;7.65;3.63;;;25.90;50.90;;;;;;5045849;28;20930;-65
2022/10/28 12:11:42;;;;;;;8.75;4.50;;;26.00;50.60;;;;;;5045912;28;20529;-65
2022/10/28 12:14:16;;;;;;;8.40;5.38;;;26.00;48.50;;;;;;5054457;28;20429;-66
2022/10/28 12:16:49;;;;;;;7.20;3.50;;;26.10;48.70;;;;;;5051021;28;20425;-66
2022/10/28 12:19:19;;;;;;;7.57;3.60;;;26.30;48.30;;;;;;5050884;28;20417;-66
2022/10/28 12:22:03;;;;;;;8.60;4.22;;;26.50;47.30;;;;;;5050244;28;20451;-66
2022/10/28 12:24:35;;;;;;;12.57;5.00;;;26.80;47.60;;;;;;5041827;28;20428;-66
2022/10/28 12:27:08;;;;;;;9.18;3.90;;;27.20;45.80;;;;;;5051158;28;20815;-66
2022/10/28 12:29:39;;;;;;;7.68;4.20;;;27.50;46.10;;;;;;5050759;28;20428;-66
2022/10/28 12:32:09;;;;;;;5.72;3.63;;;27.50;44.60;;;;;;5049904;28;20479;-66
2022/10/28 12:34:41;;;;;;;8.65;3.78;;;27.40;44.80;;;;;;5048587;28;20429;-66
2022/10/28 12:37:12;;;;;;;7.95;3.60;;;27.60;43.90;;;;;;5047922;28;20434;-66
2022/10/28 12:39:44;;;;;;;8.17;3.47;;;27.70;44.60;;;;;;5050026;28;20429;-66
2022/10/28 12:42:16;;;;;;;8.85;3.53;;;27.50;45.00;;;;;;5050541;28;20423;-66
2022/10/28 12:44:44;;;;;;;9.83;4.43;;;27.20;45.10;;;;;;5049737;28;20835;-66
2022/10/28 12:47:21;;;;;;;9.57;3.38;;;26.80;44.50;;;;;;5050158;28;20418;-66
2022/10/28 12:49:59;;;;;;;8.35;3.72;;;26.40;45.50;;;;;;5050285;28;20416;-66
2022/10/28 12:52:44;;;;;;;8.15;3.40;;;26.10;46.40;;;;;;5040739;28;22352;-66
2022/10/28 12:55:24;;;;;;;7.88;4.50;;;25.90;47.20;;;;;;5047638;28;20432;-65
2022/10/28 12:57:57;;;;;;;9.38;3.90;;;26.00;46.60;;;;;;5049900;28;20452;-66
2022/10/28 13:00:27;;;;;;;5.38;3.30;;;26.00;46.90;;;;;;5043594;28;20417;-65
2022/10/28 13:03:01;;;;;;;7.32;4.30;;;26.00;46.80;;;;;;5049414;28;20421;-67
2022/10/28 13:05:32;;;;;;;6.97;3.60;;;26.20;46.10;;;;;;5050497;28;20421;-65